sensor_id;sensor_type;location;lat;lon;timestamp;temperature;humidity
34833;DHT22;55941;50.800;4.342;2022-09-09T00:02:27;15.00;99.90
34833;DHT22;55941;50.800;4.342;2022-09-09T00:07:55;15.00;99.90
34833;DHT22;55941;50.800;4.342;2022-09-09T00:10:29;15.00;99.90
34833;DHT22;55941;50.800;4.342;2022-09-09T00:13:19;15.10;99.90
34833;DHT22;55941;50.800;4.342;2022-09-09T00:16:04;15.00;99.90
34833;DHT22;55941;50.800;4.342;2022-09-09T00:19:00;14.90;99.90
34833;DHT22;55941;50.800;4.342;2022-09-09T00:21:36;14.90;99.90
34833;DHT22;55941;50.800;4.342;2022-09-09T00:24:28;15.00;99.90
34833;DHT22;55941;50.800;4.342;2022-09-09T00:32:45;15.10;99.90
34833;DHT22;55941;50.800;4.342;2022-09-09T00:35:22;15.20;99.90
34833;DHT22;55941;50.800;4.342;2022-09-09T00:37:52;15.20;99.90
34833;DHT22;55941;50.800;4.342;2022-09-09T00:51:41;15.20;99.90
34833;DHT22;55941;50.800;4.342;2022-09-09T00:56:47;15.20;99.90
34833;DHT22;55941;50.800;4.342;2022-09-09T00:59:21;15.20;99.90
34833;DHT22;55941;50.800;4.342;2022-09-09T01:01:49;15.20;99.90
34833;DHT22;55941;50.800;4.342;2022-09-09T01:04:25;15.20;99.90
34833;DHT22;55941;50.800;4.342;2022-09-09T01:06:59;15.20;99.90
34833;DHT22;55941;50.800;4.342;2022-09-09T01:09:52;15.30;99.90
34833;DHT22;55941;50.800;4.342;2022-09-09T01:14:56;15.50;99.90
34833;DHT22;55941;50.800;4.342;2022-09-09T01:17:34;15.50;99.90
34833;DHT22;55941;50.800;4.342;2022-09-09T01:28:29;15.70;99.90
34833;DHT22;55941;50.800;4.342;2022-09-09T01:30:56;15.70;99.90
34833;DHT22;55941;50.800;4.342;2022-09-09T01:33:22;15.50;99.90
34833;DHT22;55941;50.800;4.342;2022-09-09T01:38:28;15.20;99.90
34833;DHT22;55941;50.800;4.342;2022-09-09T01:40:55;15.20;99.90
34833;DHT22;55941;50.800;4.342;2022-09-09T01:43:21;15.30;99.90
34833;DHT22;55941;50.800;4.342;2022-09-09T01:45:51;15.50;99.90
34833;DHT22;55941;50.800;4.342;2022-09-09T01:48:19;15.60;99.90
34833;DHT22;55941;50.800;4.342;2022-09-09T01:50:45;15.60;99.90
34833;DHT22;55941;50.800;4.342;2022-09-09T01:53:12;15.50;99.90
34833;DHT22;55941;50.800;4.342;2022-09-09T01:55:41;15.50;99.90
34833;DHT22;55941;50.800;4.342;2022-09-09T02:01:10;15.60;99.90
34833;DHT22;55941;50.800;4.342;2022-09-09T02:03:38;15.50;99.90
34833;DHT22;55941;50.800;4.342;2022-09-09T02:06:30;15.40;99.90
34833;DHT22;55941;50.800;4.342;2022-09-09T02:08:59;15.40;99.90
34833;DHT22;55941;50.800;4.342;2022-09-09T02:11:27;15.40;99.90
34833;DHT22;55941;50.800;4.342;2022-09-09T02:14:15;15.30;99.90
34833;DHT22;55941;50.800;4.342;2022-09-09T02:16:50;15.40;99.90
34833;DHT22;55941;50.800;4.342;2022-09-09T02:19:29;15.40;99.90
34833;DHT22;55941;50.800;4.342;2022-09-09T02:21:59;15.40;99.90
34833;DHT22;55941;50.800;4.342;2022-09-09T02:24:27;15.50;99.90
34833;DHT22;55941;50.800;4.342;2022-09-09T02:26:56;15.50;99.90
34833;DHT22;55941;50.800;4.342;2022-09-09T02:29:27;15.50;99.90
34833;DHT22;55941;50.800;4.342;2022-09-09T02:31:56;15.40;99.90
34833;DHT22;55941;50.800;4.342;2022-09-09T02:34:25;15.30;99.90
34833;DHT22;55941;50.800;4.342;2022-09-09T02:36:53;15.40;99.90
34833;DHT22;55941;50.800;4.342;2022-09-09T02:39:20;15.50;99.90
34833;DHT22;55941;50.800;4.342;2022-09-09T02:41:46;15.50;99.90
34833;DHT22;55941;50.800;4.342;2022-09-09T02:44:17;15.50;99.90
34833;DHT22;55941;50.800;4.342;2022-09-09T02:47:12;15.50;99.90
34833;DHT22;55941;50.800;4.342;2022-09-09T02:50:03;15.60;99.90
34833;DHT22;55941;50.800;4.342;2022-09-09T02:55:47;15.60;99.90
34833;DHT22;55941;50.800;4.342;2022-09-09T02:58:16;15.70;99.90
34833;DHT22;55941;50.800;4.342;2022-09-09T03:00:44;15.70;99.90
34833;DHT22;55941;50.800;4.342;2022-09-09T03:03:11;15.60;99.90
34833;DHT22;55941;50.800;4.342;2022-09-09T03:05:38;15.60;99.90
34833;DHT22;55941;50.800;4.342;2022-09-09T03:08:05;15.60;99.90
34833;DHT22;55941;50.800;4.342;2022-09-09T03:10:31;15.70;99.90
34833;DHT22;55941;50.800;4.342;2022-09-09T03:12:57;15.60;99.90
34833;DHT22;55941;50.800;4.342;2022-09-09T03:15:23;15.70;99.90
34833;DHT22;55941;50.800;4.342;2022-09-09T03:17:49;15.60;99.90
34833;DHT22;55941;50.800;4.342;2022-09-09T03:20:14;15.60;99.90
34833;DHT22;55941;50.800;4.342;2022-09-09T03:22:40;15.50;99.90
34833;DHT22;55941;50.800;4.342;2022-09-09T03:25:06;15.40;99.90
34833;DHT22;55941;50.800;4.342;2022-09-09T03:27:32;15.60;99.90
34833;DHT22;55941;50.800;4.342;2022-09-09T03:29:58;15.60;99.90
34833;DHT22;55941;50.800;4.342;2022-09-09T03:32:24;15.50;99.90
34833;DHT22;55941;50.800;4.342;2022-09-09T03:34:52;15.40;99.90
34833;DHT22;55941;50.800;4.342;2022-09-09T03:37:19;15.60;99.90
34833;DHT22;55941;50.800;4.342;2022-09-09T03:39:45;15.60;99.90
34833;DHT22;55941;50.800;4.342;2022-09-09T03:42:14;15.70;99.90
34833;DHT22;55941;50.800;4.342;2022-09-09T03:44:45;15.70;99.90
34833;DHT22;55941;50.800;4.342;2022-09-09T03:47:19;15.70;99.90
34833;DHT22;55941;50.800;4.342;2022-09-09T03:49:47;15.60;99.90
34833;DHT22;55941;50.800;4.342;2022-09-09T03:52:15;15.70;99.90
34833;DHT22;55941;50.800;4.342;2022-09-09T03:54:41;15.70;99.90
34833;DHT22;55941;50.800;4.342;2022-09-09T03:57:09;15.70;99.90
34833;DHT22;55941;50.800;4.342;2022-09-09T03:59:35;15.60;99.90
34833;DHT22;55941;50.800;4.342;2022-09-09T04:02:01;15.70;99.90
34833;DHT22;55941;50.800;4.342;2022-09-09T04:04:27;15.50;99.90
34833;DHT22;55941;50.800;4.342;2022-09-09T04:06:53;15.40;99.90
34833;DHT22;55941;50.800;4.342;2022-09-09T04:09:19;15.60;99.90
34833;DHT22;55941;50.800;4.342;2022-09-09T04:11:45;15.60;99.90
34833;DHT22;55941;50.800;4.342;2022-09-09T04:14:12;15.60;99.90
34833;DHT22;55941;50.800;4.342;2022-09-09T04:16:38;15.60;99.90
34833;DHT22;55941;50.800;4.342;2022-09-09T04:19:04;15.60;99.90
34833;DHT22;55941;50.800;4.342;2022-09-09T04:21:33;15.50;99.90
34833;DHT22;55941;50.800;4.342;2022-09-09T04:23:58;15.60;99.90
34833;DHT22;55941;50.800;4.342;2022-09-09T04:26:24;15.60;99.90
34833;DHT22;55941;50.800;4.342;2022-09-09T04:28:51;15.70;99.90
34833;DHT22;55941;50.800;4.342;2022-09-09T04:31:22;15.70;99.90
34833;DHT22;55941;50.800;4.342;2022-09-09T04:33:51;15.70;99.90
34833;DHT22;55941;50.800;4.342;2022-09-09T04:36:17;15.60;99.90
34833;DHT22;55941;50.800;4.342;2022-09-09T04:38:46;15.60;99.90
34833;DHT22;55941;50.800;4.342;2022-09-09T04:41:14;15.60;99.90
34833;DHT22;55941;50.800;4.342;2022-09-09T04:43:40;15.60;99.90
34833;DHT22;55941;50.800;4.342;2022-09-09T04:46:06;15.50;99.90
34833;DHT22;55941;50.800;4.342;2022-09-09T04:48:32;15.40;99.90
34833;DHT22;55941;50.800;4.342;2022-09-09T04:51:03;15.40;99.90
34833;DHT22;55941;50.800;4.342;2022-09-09T04:53:30;15.40;99.90
34833;DHT22;55941;50.800;4.342;2022-09-09T04:56:12;15.50;99.90
34833;DHT22;55941;50.800;4.342;2022-09-09T04:58:39;15.50;99.90
34833;DHT22;55941;50.800;4.342;2022-09-09T05:01:12;15.60;99.90
34833;DHT22;55941;50.800;4.342;2022-09-09T05:03:38;15.50;99.90
34833;DHT22;55941;50.800;4.342;2022-09-09T05:06:11;15.70;99.90
34833;DHT22;55941;50.800;4.342;2022-09-09T05:08:38;15.60;99.90
34833;DHT22;55941;50.800;4.342;2022-09-09T05:11:20;15.70;99.90
34833;DHT22;55941;50.800;4.342;2022-09-09T05:13:47;15.70;99.90
34833;DHT22;55941;50.800;4.342;2022-09-09T05:16:14;15.70;99.90
34833;DHT22;55941;50.800;4.342;2022-09-09T05:18:40;15.80;99.90
34833;DHT22;55941;50.800;4.342;2022-09-09T05:21:08;15.70;99.90
34833;DHT22;55941;50.800;4.342;2022-09-09T05:23:35;15.70;99.90
34833;DHT22;55941;50.800;4.342;2022-09-09T05:26:01;15.70;99.90
34833;DHT22;55941;50.800;4.342;2022-09-09T05:28:27;15.70;99.90
34833;DHT22;55941;50.800;4.342;2022-09-09T05:31:02;15.90;99.90
34833;DHT22;55941;50.800;4.342;2022-09-09T05:33:30;15.90;99.90
34833;DHT22;55941;50.800;4.342;2022-09-09T05:36:05;16.00;99.90
34833;DHT22;55941;50.800;4.342;2022-09-09T05:38:33;15.90;99.90
34833;DHT22;55941;50.800;4.342;2022-09-09T05:41:00;15.90;99.90
34833;DHT22;55941;50.800;4.342;2022-09-09T05:43:28;15.90;99.90
34833;DHT22;55941;50.800;4.342;2022-09-09T05:46:05;15.80;99.90
34833;DHT22;55941;50.800;4.342;2022-09-09T05:48:32;15.90;99.90
34833;DHT22;55941;50.800;4.342;2022-09-09T05:50:59;15.90;99.90
34833;DHT22;55941;50.800;4.342;2022-09-09T05:53:26;15.70;99.90
34833;DHT22;55941;50.800;4.342;2022-09-09T05:56:06;15.70;99.90
34833;DHT22;55941;50.800;4.342;2022-09-09T05:58:33;15.80;99.90
34833;DHT22;55941;50.800;4.342;2022-09-09T06:01:11;15.90;99.90
34833;DHT22;55941;50.800;4.342;2022-09-09T06:03:39;15.90;99.90
34833;DHT22;55941;50.800;4.342;2022-09-09T06:06:07;15.90;99.90
34833;DHT22;55941;50.800;4.342;2022-09-09T06:08:35;16.10;99.90
34833;DHT22;55941;50.800;4.342;2022-09-09T06:11:05;16.20;99.90
34833;DHT22;55941;50.800;4.342;2022-09-09T06:13:31;16.30;99.90
34833;DHT22;55941;50.800;4.342;2022-09-09T06:15:57;16.20;99.90
34833;DHT22;55941;50.800;4.342;2022-09-09T06:18:24;16.30;99.90
34833;DHT22;55941;50.800;4.342;2022-09-09T06:21:02;16.30;99.90
34833;DHT22;55941;50.800;4.342;2022-09-09T06:23:30;16.20;99.90
34833;DHT22;55941;50.800;4.342;2022-09-09T06:26:04;16.30;99.90
34833;DHT22;55941;50.800;4.342;2022-09-09T06:28:32;16.30;99.90
34833;DHT22;55941;50.800;4.342;2022-09-09T06:31:03;16.30;99.90
34833;DHT22;55941;50.800;4.342;2022-09-09T06:33:40;16.40;99.90
34833;DHT22;55941;50.800;4.342;2022-09-09T06:36:15;16.40;99.90
34833;DHT22;55941;50.800;4.342;2022-09-09T06:38:41;16.30;99.90
34833;DHT22;55941;50.800;4.342;2022-09-09T06:41:09;16.30;99.90
34833;DHT22;55941;50.800;4.342;2022-09-09T06:43:35;16.50;99.90
34833;DHT22;55941;50.800;4.342;2022-09-09T06:46:21;16.50;99.90
34833;DHT22;55941;50.800;4.342;2022-09-09T06:48:47;16.40;99.90
34833;DHT22;55941;50.800;4.342;2022-09-09T06:51:14;16.40;99.90
34833;DHT22;55941;50.800;4.342;2022-09-09T06:53:42;16.60;99.90
34833;DHT22;55941;50.800;4.342;2022-09-09T06:58:35;16.60;99.90
34833;DHT22;55941;50.800;4.342;2022-09-09T07:01:12;16.70;99.90
34833;DHT22;55941;50.800;4.342;2022-09-09T07:03:39;16.80;99.90
34833;DHT22;55941;50.800;4.342;2022-09-09T07:06:06;16.80;99.90
34833;DHT22;55941;50.800;4.342;2022-09-09T07:08:33;16.80;99.90
34833;DHT22;55941;50.800;4.342;2022-09-09T07:11:06;16.80;99.90
34833;DHT22;55941;50.800;4.342;2022-09-09T07:13:33;16.70;99.90
34833;DHT22;55941;50.800;4.342;2022-09-09T07:16:13;16.70;99.90
34833;DHT22;55941;50.800;4.342;2022-09-09T07:18:39;16.70;99.90
34833;DHT22;55941;50.800;4.342;2022-09-09T07:21:05;16.70;99.90
34833;DHT22;55941;50.800;4.342;2022-09-09T07:23:32;16.80;99.90
34833;DHT22;55941;50.800;4.342;2022-09-09T07:25:58;16.70;99.90
34833;DHT22;55941;50.800;4.342;2022-09-09T07:28:25;16.80;99.90
34833;DHT22;55941;50.800;4.342;2022-09-09T07:31:00;16.80;99.90
34833;DHT22;55941;50.800;4.342;2022-09-09T07:33:29;16.70;99.90
34833;DHT22;55941;50.800;4.342;2022-09-09T07:36:10;16.70;99.90
34833;DHT22;55941;50.800;4.342;2022-09-09T07:38:44;16.60;99.90
34833;DHT22;55941;50.800;4.342;2022-09-09T07:41:13;16.60;99.90
34833;DHT22;55941;50.800;4.342;2022-09-09T07:43:40;16.60;99.90
34833;DHT22;55941;50.800;4.342;2022-09-09T07:46:07;16.30;99.90
34833;DHT22;55941;50.800;4.342;2022-09-09T07:48:33;16.20;99.90
34833;DHT22;55941;50.800;4.342;2022-09-09T07:51:12;16.20;99.90
34833;DHT22;55941;50.800;4.342;2022-09-09T07:53:41;16.30;99.90
34833;DHT22;55941;50.800;4.342;2022-09-09T07:56:09;16.40;99.90
34833;DHT22;55941;50.800;4.342;2022-09-09T07:58:36;16.40;99.90
34833;DHT22;55941;50.800;4.342;2022-09-09T08:01:07;16.50;99.90
34833;DHT22;55941;50.800;4.342;2022-09-09T08:03:34;16.60;99.90
34833;DHT22;55941;50.800;4.342;2022-09-09T08:06:01;16.70;99.90
34833;DHT22;55941;50.800;4.342;2022-09-09T08:08:28;16.70;99.90
34833;DHT22;55941;50.800;4.342;2022-09-09T08:10:53;16.80;99.90
34833;DHT22;55941;50.800;4.342;2022-09-09T08:13:19;16.80;99.90
34833;DHT22;55941;50.800;4.342;2022-09-09T08:15:45;17.10;99.90
34833;DHT22;55941;50.800;4.342;2022-09-09T08:18:11;17.10;99.90
34833;DHT22;55941;50.800;4.342;2022-09-09T08:20:36;17.20;99.90
34833;DHT22;55941;50.800;4.342;2022-09-09T08:23:03;17.30;99.90
34833;DHT22;55941;50.800;4.342;2022-09-09T08:25:30;17.30;99.90
34833;DHT22;55941;50.800;4.342;2022-09-09T08:27:56;17.40;99.90
34833;DHT22;55941;50.800;4.342;2022-09-09T08:30:22;17.30;99.90
34833;DHT22;55941;50.800;4.342;2022-09-09T08:32:48;17.30;99.90
34833;DHT22;55941;50.800;4.342;2022-09-09T08:35:16;17.30;99.90
34833;DHT22;55941;50.800;4.342;2022-09-09T08:37:42;17.40;99.90
34833;DHT22;55941;50.800;4.342;2022-09-09T08:40:24;17.40;99.90
34833;DHT22;55941;50.800;4.342;2022-09-09T08:42:53;17.50;99.90
34833;DHT22;55941;50.800;4.342;2022-09-09T08:45:37;17.30;99.90
34833;DHT22;55941;50.800;4.342;2022-09-09T08:51:00;17.20;99.90
34833;DHT22;55941;50.800;4.342;2022-09-09T08:53:33;17.10;99.90
34833;DHT22;55941;50.800;4.342;2022-09-09T08:56:10;17.00;99.90
34833;DHT22;55941;50.800;4.342;2022-09-09T08:59:02;17.20;99.90
34833;DHT22;55941;50.800;4.342;2022-09-09T09:01:33;17.10;99.90
34833;DHT22;55941;50.800;4.342;2022-09-09T09:11:57;17.10;99.90
34833;DHT22;55941;50.800;4.342;2022-09-09T09:14:30;17.20;99.90
34833;DHT22;55941;50.800;4.342;2022-09-09T09:17:25;17.10;99.90
34833;DHT22;55941;50.800;4.342;2022-09-09T09:19:53;17.00;99.90
34833;DHT22;55941;50.800;4.342;2022-09-09T09:22:41;17.00;99.90
34833;DHT22;55941;50.800;4.342;2022-09-09T09:25:14;16.90;99.90
34833;DHT22;55941;50.800;4.342;2022-09-09T09:32:39;16.90;99.90
34833;DHT22;55941;50.800;4.342;2022-09-09T09:35:11;16.80;99.90
34833;DHT22;55941;50.800;4.342;2022-09-09T09:37:40;16.60;99.90
34833;DHT22;55941;50.800;4.342;2022-09-09T09:40:17;16.60;99.90
34833;DHT22;55941;50.800;4.342;2022-09-09T09:43:03;16.70;99.90
34833;DHT22;55941;50.800;4.342;2022-09-09T09:45:40;16.60;99.90
34833;DHT22;55941;50.800;4.342;2022-09-09T09:48:11;16.60;99.90
34833;DHT22;55941;50.800;4.342;2022-09-09T09:53:34;16.70;99.90
34833;DHT22;55941;50.800;4.342;2022-09-09T09:56:11;16.70;99.90
34833;DHT22;55941;50.800;4.342;2022-09-09T09:58:50;16.70;99.90
34833;DHT22;55941;50.800;4.342;2022-09-09T10:01:42;16.80;99.90
34833;DHT22;55941;50.800;4.342;2022-09-09T10:04:17;16.80;99.90
34833;DHT22;55941;50.800;4.342;2022-09-09T10:06:44;16.90;99.90
34833;DHT22;55941;50.800;4.342;2022-09-09T10:09:29;17.00;99.90
34833;DHT22;55941;50.800;4.342;2022-09-09T10:15:06;17.00;99.90
34833;DHT22;55941;50.800;4.342;2022-09-09T10:31:49;17.30;99.90
34833;DHT22;55941;50.800;4.342;2022-09-09T10:34:56;17.50;99.90
34833;DHT22;55941;50.800;4.342;2022-09-09T10:40:32;17.40;99.90
34833;DHT22;55941;50.800;4.342;2022-09-09T10:45:53;17.50;99.90
34833;DHT22;55941;50.800;4.342;2022-09-09T10:51:17;17.90;99.90
34833;DHT22;55941;50.800;4.342;2022-09-09T10:54:11;18.00;99.90
34833;DHT22;55941;50.800;4.342;2022-09-09T10:56:39;18.00;99.90
34833;DHT22;55941;50.800;4.342;2022-09-09T10:59:12;18.10;99.90
34833;DHT22;55941;50.800;4.342;2022-09-09T11:01:58;18.20;99.90
34833;DHT22;55941;50.800;4.342;2022-09-09T11:05:16;18.20;99.90
34833;DHT22;55941;50.800;4.342;2022-09-09T11:13:37;18.10;99.90
34833;DHT22;55941;50.800;4.342;2022-09-09T11:18:46;18.30;99.90
34833;DHT22;55941;50.800;4.342;2022-09-09T11:21:34;18.40;99.90
34833;DHT22;55941;50.800;4.342;2022-09-09T11:24:08;18.50;99.90
34833;DHT22;55941;50.800;4.342;2022-09-09T11:26:44;18.40;99.90
34833;DHT22;55941;50.800;4.342;2022-09-09T11:40:14;18.40;99.90
34833;DHT22;55941;50.800;4.342;2022-09-09T11:42:41;18.40;99.90
34833;DHT22;55941;50.800;4.342;2022-09-09T11:45:25;18.30;99.90
34833;DHT22;55941;50.800;4.342;2022-09-09T11:47:59;18.40;99.90
34833;DHT22;55941;50.800;4.342;2022-09-09T11:53:02;18.30;99.90
34833;DHT22;55941;50.800;4.342;2022-09-09T11:55:33;18.40;99.90
34833;DHT22;55941;50.800;4.342;2022-09-09T11:58:00;18.50;99.90
34833;DHT22;55941;50.800;4.342;2022-09-09T12:00:36;18.50;99.90
34833;DHT22;55941;50.800;4.342;2022-09-09T12:05:59;18.50;99.90
34833;DHT22;55941;50.800;4.342;2022-09-09T12:08:29;18.60;99.90
34833;DHT22;55941;50.800;4.342;2022-09-09T12:10:58;18.60;99.90
34833;DHT22;55941;50.800;4.342;2022-09-09T12:13:26;18.60;99.90
34833;DHT22;55941;50.800;4.342;2022-09-09T12:15:54;18.50;99.90
34833;DHT22;55941;50.800;4.342;2022-09-09T12:23:47;18.50;99.90
34833;DHT22;55941;50.800;4.342;2022-09-09T12:29:15;18.90;99.90
34833;DHT22;55941;50.800;4.342;2022-09-09T12:31:51;19.00;99.90
34833;DHT22;55941;50.800;4.342;2022-09-09T12:34:43;19.10;99.90
34833;DHT22;55941;50.800;4.342;2022-09-09T12:40:06;19.30;99.90
34833;DHT22;55941;50.800;4.342;2022-09-09T12:42:43;19.30;99.90
34833;DHT22;55941;50.800;4.342;2022-09-09T12:45:23;19.50;99.90
34833;DHT22;55941;50.800;4.342;2022-09-09T12:48:11;19.40;99.90
34833;DHT22;55941;50.800;4.342;2022-09-09T12:50:43;19.50;99.90
34833;DHT22;55941;50.800;4.342;2022-09-09T12:53:22;19.60;99.90
34833;DHT22;55941;50.800;4.342;2022-09-09T12:55:57;19.60;99.90
34833;DHT22;55941;50.800;4.342;2022-09-09T12:58:24;19.60;99.90
34833;DHT22;55941;50.800;4.342;2022-09-09T13:00:52;19.70;99.90
34833;DHT22;55941;50.800;4.342;2022-09-09T13:03:20;19.50;99.90
34833;DHT22;55941;50.800;4.342;2022-09-09T13:05:46;19.50;99.90
34833;DHT22;55941;50.800;4.342;2022-09-09T13:08:13;19.50;99.90
34833;DHT22;55941;50.800;4.342;2022-09-09T13:13:16;19.80;99.90
34833;DHT22;55941;50.800;4.342;2022-09-09T13:15:50;19.80;99.90
34833;DHT22;55941;50.800;4.342;2022-09-09T13:18:19;19.80;99.90
34833;DHT22;55941;50.800;4.342;2022-09-09T13:20:48;19.90;99.90
34833;DHT22;55941;50.800;4.342;2022-09-09T13:23:15;20.10;99.90
34833;DHT22;55941;50.800;4.342;2022-09-09T13:25:59;20.40;99.90
34833;DHT22;55941;50.800;4.342;2022-09-09T13:28:27;20.80;99.90
34833;DHT22;55941;50.800;4.342;2022-09-09T13:31:03;21.00;99.90
34833;DHT22;55941;50.800;4.342;2022-09-09T13:33:31;21.10;99.90
34833;DHT22;55941;50.800;4.342;2022-09-09T13:35:59;21.10;99.90
34833;DHT22;55941;50.800;4.342;2022-09-09T13:38:26;21.20;99.90
34833;DHT22;55941;50.800;4.342;2022-09-09T13:41:04;21.50;99.90
34833;DHT22;55941;50.800;4.342;2022-09-09T13:43:34;21.50;99.90
34833;DHT22;55941;50.800;4.342;2022-09-09T13:46:20;21.70;99.90
34833;DHT22;55941;50.800;4.342;2022-09-09T13:49:03;22.10;99.90
34833;DHT22;55941;50.800;4.342;2022-09-09T13:51:47;22.00;99.90
34833;DHT22;55941;50.800;4.342;2022-09-09T13:54:16;21.80;99.90
34833;DHT22;55941;50.800;4.342;2022-09-09T13:56:43;21.50;99.90
34833;DHT22;55941;50.800;4.342;2022-09-09T13:59:17;21.20;99.90
34833;DHT22;55941;50.800;4.342;2022-09-09T14:01:47;21.10;99.90
34833;DHT22;55941;50.800;4.342;2022-09-09T14:04:14;21.00;99.90
34833;DHT22;55941;50.800;4.342;2022-09-09T14:06:42;21.00;99.90
34833;DHT22;55941;50.800;4.342;2022-09-09T14:09:12;20.80;99.90
34833;DHT22;55941;50.800;4.342;2022-09-09T14:11:38;20.80;99.90
34833;DHT22;55941;50.800;4.342;2022-09-09T14:14:05;20.80;99.90
34833;DHT22;55941;50.800;4.342;2022-09-09T14:16:31;20.60;99.90
34833;DHT22;55941;50.800;4.342;2022-09-09T14:18:57;20.50;99.90
34833;DHT22;55941;50.800;4.342;2022-09-09T14:21:23;20.40;99.90
34833;DHT22;55941;50.800;4.342;2022-09-09T14:23:49;20.20;99.90
34833;DHT22;55941;50.800;4.342;2022-09-09T14:26:15;20.10;99.90
34833;DHT22;55941;50.800;4.342;2022-09-09T14:28:41;20.20;99.90
34833;DHT22;55941;50.800;4.342;2022-09-09T14:31:06;20.40;99.90
34833;DHT22;55941;50.800;4.342;2022-09-09T14:33:32;20.50;99.90
34833;DHT22;55941;50.800;4.342;2022-09-09T14:36:02;20.70;99.90
34833;DHT22;55941;50.800;4.342;2022-09-09T14:38:30;20.80;99.90
34833;DHT22;55941;50.800;4.342;2022-09-09T14:40:55;20.80;99.90
34833;DHT22;55941;50.800;4.342;2022-09-09T14:43:22;20.90;99.90
34833;DHT22;55941;50.800;4.342;2022-09-09T14:45:47;21.00;99.90
34833;DHT22;55941;50.800;4.342;2022-09-09T14:48:14;21.00;99.90
34833;DHT22;55941;50.800;4.342;2022-09-09T14:50:40;21.30;99.90
34833;DHT22;55941;50.800;4.342;2022-09-09T14:53:07;21.50;99.90
34833;DHT22;55941;50.800;4.342;2022-09-09T14:55:34;21.80;99.90
34833;DHT22;55941;50.800;4.342;2022-09-09T14:58:00;21.50;99.90
34833;DHT22;55941;50.800;4.342;2022-09-09T15:00:26;21.30;99.90
34833;DHT22;55941;50.800;4.342;2022-09-09T15:02:53;21.30;99.90
34833;DHT22;55941;50.800;4.342;2022-09-09T15:05:18;21.10;99.90
34833;DHT22;55941;50.800;4.342;2022-09-09T15:07:44;21.10;99.90
34833;DHT22;55941;50.800;4.342;2022-09-09T15:10:10;21.00;99.90
34833;DHT22;55941;50.800;4.342;2022-09-09T15:12:36;21.00;99.90
34833;DHT22;55941;50.800;4.342;2022-09-09T15:15:04;21.20;99.90
34833;DHT22;55941;50.800;4.342;2022-09-09T15:17:30;21.40;99.90
34833;DHT22;55941;50.800;4.342;2022-09-09T15:19:56;21.70;99.90
34833;DHT22;55941;50.800;4.342;2022-09-09T15:22:21;21.70;99.90
34833;DHT22;55941;50.800;4.342;2022-09-09T15:24:47;21.70;99.90
34833;DHT22;55941;50.800;4.342;2022-09-09T15:27:13;21.40;99.90
34833;DHT22;55941;50.800;4.342;2022-09-09T15:29:40;21.30;99.90
34833;DHT22;55941;50.800;4.342;2022-09-09T15:32:07;21.20;99.90
34833;DHT22;55941;50.800;4.342;2022-09-09T15:34:32;21.00;99.90
34833;DHT22;55941;50.800;4.342;2022-09-09T15:36:58;21.00;99.90
34833;DHT22;55941;50.800;4.342;2022-09-09T15:39:25;20.80;99.90
34833;DHT22;55941;50.800;4.342;2022-09-09T15:41:51;20.70;99.90
34833;DHT22;55941;50.800;4.342;2022-09-09T15:44:17;20.80;99.90
34833;DHT22;55941;50.800;4.342;2022-09-09T15:46:45;21.10;99.90
34833;DHT22;55941;50.800;4.342;2022-09-09T15:49:13;21.50;99.90
34833;DHT22;55941;50.800;4.342;2022-09-09T15:51:45;22.10;99.90
34833;DHT22;55941;50.800;4.342;2022-09-09T15:54:16;22.80;99.90
34833;DHT22;55941;50.800;4.342;2022-09-09T15:56:46;23.80;99.90
34833;DHT22;55941;50.800;4.342;2022-09-09T15:59:14;23.80;99.90
34833;DHT22;55941;50.800;4.342;2022-09-09T16:01:40;23.10;99.90
34833;DHT22;55941;50.800;4.342;2022-09-09T16:04:06;22.30;99.90
34833;DHT22;55941;50.800;4.342;2022-09-09T16:06:33;21.70;99.90
34833;DHT22;55941;50.800;4.342;2022-09-09T16:09:00;21.40;99.90
34833;DHT22;55941;50.800;4.342;2022-09-09T16:11:29;20.90;99.90
34833;DHT22;55941;50.800;4.342;2022-09-09T16:13:56;20.90;99.90
34833;DHT22;55941;50.800;4.342;2022-09-09T16:16:24;20.80;99.90
34833;DHT22;55941;50.800;4.342;2022-09-09T16:18:54;20.80;99.90
34833;DHT22;55941;50.800;4.342;2022-09-09T16:21:26;20.50;99.90
34833;DHT22;55941;50.800;4.342;2022-09-09T16:23:55;19.90;99.90
34833;DHT22;55941;50.800;4.342;2022-09-09T16:26:21;18.90;99.90
34833;DHT22;55941;50.800;4.342;2022-09-09T16:28:48;18.10;99.90
34833;DHT22;55941;50.800;4.342;2022-09-09T16:31:16;17.80;99.90
34833;DHT22;55941;50.800;4.342;2022-09-09T16:33:43;17.40;99.90
34833;DHT22;55941;50.800;4.342;2022-09-09T16:36:11;17.30;99.90
34833;DHT22;55941;50.800;4.342;2022-09-09T16:38:39;17.20;99.90
34833;DHT22;55941;50.800;4.342;2022-09-09T16:41:06;17.10;99.90
34833;DHT22;55941;50.800;4.342;2022-09-09T16:43:34;17.00;99.90
34833;DHT22;55941;50.800;4.342;2022-09-09T16:46:03;17.10;99.90
34833;DHT22;55941;50.800;4.342;2022-09-09T16:48:36;17.00;99.90
34833;DHT22;55941;50.800;4.342;2022-09-09T16:51:05;17.00;99.90
34833;DHT22;55941;50.800;4.342;2022-09-09T16:53:33;17.10;99.90
34833;DHT22;55941;50.800;4.342;2022-09-09T16:56:05;17.10;99.90
34833;DHT22;55941;50.800;4.342;2022-09-09T16:58:32;16.90;99.90
34833;DHT22;55941;50.800;4.342;2022-09-09T17:00:59;16.80;99.90
34833;DHT22;55941;50.800;4.342;2022-09-09T17:03:24;17.10;99.90
34833;DHT22;55941;50.800;4.342;2022-09-09T17:05:50;17.20;99.90
34833;DHT22;55941;50.800;4.342;2022-09-09T17:08:16;17.20;99.90
34833;DHT22;55941;50.800;4.342;2022-09-09T17:10:42;17.20;99.90
34833;DHT22;55941;50.800;4.342;2022-09-09T17:13:07;17.50;99.90
34833;DHT22;55941;50.800;4.342;2022-09-09T17:15:33;17.30;99.90
34833;DHT22;55941;50.800;4.342;2022-09-09T17:18:05;17.50;99.90
34833;DHT22;55941;50.800;4.342;2022-09-09T17:20:35;17.30;99.90
34833;DHT22;55941;50.800;4.342;2022-09-09T17:23:01;17.40;99.90
34833;DHT22;55941;50.800;4.342;2022-09-09T17:25:27;17.50;99.90
34833;DHT22;55941;50.800;4.342;2022-09-09T17:27:53;17.60;99.90
34833;DHT22;55941;50.800;4.342;2022-09-09T17:30:18;17.60;99.90
34833;DHT22;55941;50.800;4.342;2022-09-09T17:32:44;17.50;99.90
34833;DHT22;55941;50.800;4.342;2022-09-09T17:35:12;17.60;99.90
34833;DHT22;55941;50.800;4.342;2022-09-09T17:37:38;17.50;99.90
34833;DHT22;55941;50.800;4.342;2022-09-09T17:40:04;17.50;99.90
34833;DHT22;55941;50.800;4.342;2022-09-09T17:42:30;17.50;99.90
34833;DHT22;55941;50.800;4.342;2022-09-09T17:44:56;17.50;99.90
34833;DHT22;55941;50.800;4.342;2022-09-09T17:47:22;17.40;99.90
34833;DHT22;55941;50.800;4.342;2022-09-09T17:49:47;17.40;99.90
34833;DHT22;55941;50.800;4.342;2022-09-09T17:52:13;17.50;99.90
34833;DHT22;55941;50.800;4.342;2022-09-09T17:54:42;17.40;99.90
34833;DHT22;55941;50.800;4.342;2022-09-09T17:57:09;17.40;99.90
34833;DHT22;55941;50.800;4.342;2022-09-09T17:59:35;17.40;99.90